sensor_id;sensor_type;location;lat;lon;timestamp;P1;durP1;ratioP1;P2;durP2;ratioP2
2111;SDS011;1062;52.538;13.400;2024-01-11T00:02:16;9.23;;;6.87;;
2111;SDS011;1062;52.538;13.400;2024-01-11T00:04:42;9.00;;;6.30;;
2111;SDS011;1062;52.538;13.400;2024-01-11T00:07:09;8.67;;;5.70;;
2111;SDS011;1062;52.538;13.400;2024-01-11T00:09:38;9.17;;;6.23;;
2111;SDS011;1062;52.538;13.400;2024-01-11T00:12:05;11.13;;;5.90;;
2111;SDS011;1062;52.538;13.400;2024-01-11T00:14:31;15.00;;;7.97;;
2111;SDS011;1062;52.538;13.400;2024-01-11T00:16:56;11.70;;;6.17;;
2111;SDS011;1062;52.538;13.400;2024-01-11T00:19:22;16.87;;;7.33;;
2111;SDS011;1062;52.538;13.400;2024-01-11T00:21:47;9.93;;;7.10;;
2111;SDS011;1062;52.538;13.400;2024-01-11T00:24:13;14.37;;;8.17;;
2111;SDS011;1062;52.538;13.400;2024-01-11T00:26:38;11.90;;;9.20;;
2111;SDS011;1062;52.538;13.400;2024-01-11T00:29:04;9.80;;;6.50;;
2111;SDS011;1062;52.538;13.400;2024-01-11T00:31:30;11.63;;;6.93;;
2111;SDS011;1062;52.538;13.400;2024-01-11T00:33:55;12.23;;;7.67;;
2111;SDS011;1062;52.538;13.400;2024-01-11T00:36:21;13.47;;;7.20;;
2111;SDS011;1062;52.538;13.400;2024-01-11T00:38:46;10.80;;;7.00;;
2111;SDS011;1062;52.538;13.400;2024-01-11T00:41:12;7.63;;;6.40;;
2111;SDS011;1062;52.538;13.400;2024-01-11T00:43:37;7.07;;;6.23;;
2111;SDS011;1062;52.538;13.400;2024-01-11T00:46:03;14.30;;;7.83;;
2111;SDS011;1062;52.538;13.400;2024-01-11T00:48:28;9.30;;;5.97;;
2111;SDS011;1062;52.538;13.400;2024-01-11T00:50:54;10.40;;;5.33;;
2111;SDS011;1062;52.538;13.400;2024-01-11T00:53:20;7.93;;;5.20;;
2111;SDS011;1062;52.538;13.400;2024-01-11T00:55:45;10.30;;;5.77;;
2111;SDS011;1062;52.538;13.400;2024-01-11T00:58:11;7.33;;;5.67;;
2111;SDS011;1062;52.538;13.400;2024-01-11T01:00:36;10.60;;;5.73;;
2111;SDS011;1062;52.538;13.400;2024-01-11T01:03:02;11.70;;;5.90;;
2111;SDS011;1062;52.538;13.400;2024-01-11T01:05:28;14.90;;;6.37;;
2111;SDS011;1062;52.538;13.400;2024-01-11T01:07:54;8.57;;;5.47;;
2111;SDS011;1062;52.538;13.400;2024-01-11T01:10:19;10.30;;;6.40;;
2111;SDS011;1062;52.538;13.400;2024-01-11T01:12:45;9.40;;;6.20;;
2111;SDS011;1062;52.538;13.400;2024-01-11T01:15:10;12.50;;;6.77;;
2111;SDS011;1062;52.538;13.400;2024-01-11T01:17:36;6.53;;;4.83;;
2111;SDS011;1062;52.538;13.400;2024-01-11T01:20:02;10.07;;;6.30;;
2111;SDS011;1062;52.538;13.400;2024-01-11T01:22:28;10.80;;;6.60;;
2111;SDS011;1062;52.538;13.400;2024-01-11T01:24:54;10.80;;;6.20;;
2111;SDS011;1062;52.538;13.400;2024-01-11T01:27:19;8.70;;;6.77;;
2111;SDS011;1062;52.538;13.400;2024-01-11T01:29:45;17.23;;;5.77;;
2111;SDS011;1062;52.538;13.400;2024-01-11T01:32:11;13.40;;;6.47;;
2111;SDS011;1062;52.538;13.400;2024-01-11T01:34:37;8.93;;;5.97;;
2111;SDS011;1062;52.538;13.400;2024-01-11T01:37:02;11.10;;;6.63;;
2111;SDS011;1062;52.538;13.400;2024-01-11T01:39:28;15.77;;;7.47;;
2111;SDS011;1062;52.538;13.400;2024-01-11T01:41:53;14.53;;;7.93;;
2111;SDS011;1062;52.538;13.400;2024-01-11T01:44:19;12.97;;;6.80;;
2111;SDS011;1062;52.538;13.400;2024-01-11T01:46:44;14.60;;;6.70;;
2111;SDS011;1062;52.538;13.400;2024-01-11T01:49:10;9.17;;;5.97;;
2111;SDS011;1062;52.538;13.400;2024-01-11T01:51:36;15.45;;;8.55;;
2111;SDS011;1062;52.538;13.400;2024-01-11T01:54:03;10.13;;;7.00;;
2111;SDS011;1062;52.538;13.400;2024-01-11T01:56:30;12.63;;;5.63;;
2111;SDS011;1062;52.538;13.400;2024-01-11T01:58:56;11.20;;;7.50;;
2111;SDS011;1062;52.538;13.400;2024-01-11T02:01:23;12.57;;;7.57;;
2111;SDS011;1062;52.538;13.400;2024-01-11T02:03:50;11.60;;;6.28;;
2111;SDS011;1062;52.538;13.400;2024-01-11T02:06:19;11.60;;;6.22;;
2111;SDS011;1062;52.538;13.400;2024-01-11T02:08:49;17.83;;;8.00;;
2111;SDS011;1062;52.538;13.400;2024-01-11T02:11:19;20.07;;;9.20;;
2111;SDS011;1062;52.538;13.400;2024-01-11T02:13:46;14.43;;;7.13;;
2111;SDS011;1062;52.538;13.400;2024-01-11T02:16:12;13.53;;;8.43;;
2111;SDS011;1062;52.538;13.400;2024-01-11T02:18:38;12.10;;;8.03;;
2111;SDS011;1062;52.538;13.400;2024-01-11T02:21:04;15.07;;;6.63;;
2111;SDS011;1062;52.538;13.400;2024-01-11T02:23:34;14.93;;;8.33;;
2111;SDS011;1062;52.538;13.400;2024-01-11T02:26:04;11.17;;;7.83;;
2111;SDS011;1062;52.538;13.400;2024-01-11T02:28:30;11.13;;;6.83;;
2111;SDS011;1062;52.538;13.400;2024-01-11T02:30:55;11.97;;;6.63;;
2111;SDS011;1062;52.538;13.400;2024-01-11T02:33:21;14.37;;;7.53;;
2111;SDS011;1062;52.538;13.400;2024-01-11T02:35:47;18.13;;;8.33;;
2111;SDS011;1062;52.538;13.400;2024-01-11T02:38:13;12.50;;;8.10;;
2111;SDS011;1062;52.538;13.400;2024-01-11T02:40:39;8.73;;;6.67;;
2111;SDS011;1062;52.538;13.400;2024-01-11T02:43:08;14.90;;;6.50;;
2111;SDS011;1062;52.538;13.400;2024-01-11T02:45:35;13.00;;;7.57;;
2111;SDS011;1062;52.538;13.400;2024-01-11T02:48:01;9.90;;;6.03;;
2111;SDS011;1062;52.538;13.400;2024-01-11T02:50:26;10.70;;;6.40;;
2111;SDS011;1062;52.538;13.400;2024-01-11T02:52:52;13.40;;;7.30;;
2111;SDS011;1062;52.538;13.400;2024-01-11T02:55:18;9.87;;;6.50;;
2111;SDS011;1062;52.538;13.400;2024-01-11T02:57:43;14.00;;;6.47;;
2111;SDS011;1062;52.538;13.400;2024-01-11T03:00:09;9.60;;;6.37;;
2111;SDS011;1062;52.538;13.400;2024-01-11T03:02:36;13.00;;;6.90;;
2111;SDS011;1062;52.538;13.400;2024-01-11T03:05:02;16.80;;;9.10;;
2111;SDS011;1062;52.538;13.400;2024-01-11T03:07:28;13.93;;;6.73;;
2111;SDS011;1062;52.538;13.400;2024-01-11T03:09:55;13.90;;;6.40;;
2111;SDS011;1062;52.538;13.400;2024-01-11T03:12:21;18.93;;;7.83;;
2111;SDS011;1062;52.538;13.400;2024-01-11T03:14:47;16.57;;;7.73;;
2111;SDS011;1062;52.538;13.400;2024-01-11T03:17:13;17.90;;;8.47;;
2111;SDS011;1062;52.538;13.400;2024-01-11T03:19:41;14.30;;;8.53;;
2111;SDS011;1062;52.538;13.400;2024-01-11T03:22:07;15.90;;;8.20;;
2111;SDS011;1062;52.538;13.400;2024-01-11T03:24:32;18.50;;;8.83;;
2111;SDS011;1062;52.538;13.400;2024-01-11T03:27:02;20.83;;;8.23;;
2111;SDS011;1062;52.538;13.400;2024-01-11T03:29:27;13.37;;;7.17;;
2111;SDS011;1062;52.538;13.400;2024-01-11T03:31:53;12.27;;;8.43;;
2111;SDS011;1062;52.538;13.400;2024-01-11T03:34:18;11.87;;;7.27;;
2111;SDS011;1062;52.538;13.400;2024-01-11T03:36:44;14.97;;;7.50;;
2111;SDS011;1062;52.538;13.400;2024-01-11T03:39:10;14.83;;;7.63;;
2111;SDS011;1062;52.538;13.400;2024-01-11T03:41:35;16.50;;;7.70;;
2111;SDS011;1062;52.538;13.400;2024-01-11T03:44:01;11.83;;;6.57;;
2111;SDS011;1062;52.538;13.400;2024-01-11T03:46:26;11.23;;;7.17;;
2111;SDS011;1062;52.538;13.400;2024-01-11T03:48:52;13.87;;;7.63;;
2111;SDS011;1062;52.538;13.400;2024-01-11T03:51:18;14.37;;;7.70;;
2111;SDS011;1062;52.538;13.400;2024-01-11T03:53:43;15.03;;;6.50;;
2111;SDS011;1062;52.538;13.400;2024-01-11T03:56:09;13.47;;;7.67;;
2111;SDS011;1062;52.538;13.400;2024-01-11T03:58:35;12.93;;;7.37;;
2111;SDS011;1062;52.538;13.400;2024-01-11T04:01:04;13.70;;;7.67;;
2111;SDS011;1062;52.538;13.400;2024-01-11T04:03:29;11.80;;;6.40;;
2111;SDS011;1062;52.538;13.400;2024-01-11T04:05:55;13.50;;;6.30;;
2111;SDS011;1062;52.538;13.400;2024-01-11T04:08:20;13.03;;;6.40;;
2111;SDS011;1062;52.538;13.400;2024-01-11T04:10:46;12.30;;;8.17;;
2111;SDS011;1062;52.538;13.400;2024-01-11T04:13:11;12.23;;;6.70;;
2111;SDS011;1062;52.538;13.400;2024-01-11T04:15:37;11.50;;;6.30;;
2111;SDS011;1062;52.538;13.400;2024-01-11T04:18:03;10.10;;;5.93;;
2111;SDS011;1062;52.538;13.400;2024-01-11T04:20:29;9.43;;;6.33;;
2111;SDS011;1062;52.538;13.400;2024-01-11T04:22:54;13.10;;;5.60;;
2111;SDS011;1062;52.538;13.400;2024-01-11T04:25:20;18.50;;;8.13;;
2111;SDS011;1062;52.538;13.400;2024-01-11T04:27:46;14.17;;;6.90;;
2111;SDS011;1062;52.538;13.400;2024-01-11T04:30:11;12.20;;;5.77;;
2111;SDS011;1062;52.538;13.400;2024-01-11T04:32:37;12.00;;;7.60;;
2111;SDS011;1062;52.538;13.400;2024-01-11T04:35:03;12.80;;;5.73;;
2111;SDS011;1062;52.538;13.400;2024-01-11T04:37:29;11.70;;;6.40;;
2111;SDS011;1062;52.538;13.400;2024-01-11T04:39:54;16.17;;;7.73;;
2111;SDS011;1062;52.538;13.400;2024-01-11T04:42:20;14.17;;;7.73;;
2111;SDS011;1062;52.538;13.400;2024-01-11T04:44:45;14.23;;;9.80;;
2111;SDS011;1062;52.538;13.400;2024-01-11T04:47:11;10.77;;;6.77;;
2111;SDS011;1062;52.538;13.400;2024-01-11T04:49:36;15.50;;;8.37;;
2111;SDS011;1062;52.538;13.400;2024-01-11T04:52:02;16.93;;;7.10;;
2111;SDS011;1062;52.538;13.400;2024-01-11T04:54:28;12.00;;;7.00;;
2111;SDS011;1062;52.538;13.400;2024-01-11T04:56:54;21.57;;;8.00;;
2111;SDS011;1062;52.538;13.400;2024-01-11T04:59:19;14.00;;;7.87;;
2111;SDS011;1062;52.538;13.400;2024-01-11T05:01:45;14.10;;;6.93;;
2111;SDS011;1062;52.538;13.400;2024-01-11T05:04:11;20.47;;;8.77;;
2111;SDS011;1062;52.538;13.400;2024-01-11T05:06:37;18.53;;;8.83;;
2111;SDS011;1062;52.538;13.400;2024-01-11T05:09:02;14.77;;;7.63;;
2111;SDS011;1062;52.538;13.400;2024-01-11T05:11:29;18.27;;;8.00;;
2111;SDS011;1062;52.538;13.400;2024-01-11T05:13:55;15.47;;;6.93;;
2111;SDS011;1062;52.538;13.400;2024-01-11T05:16:25;24.03;;;9.43;;
2111;SDS011;1062;52.538;13.400;2024-01-11T05:18:52;19.60;;;7.63;;
2111;SDS011;1062;52.538;13.400;2024-01-11T05:21:19;20.47;;;9.33;;
2111;SDS011;1062;52.538;13.400;2024-01-11T05:23:45;19.97;;;6.30;;
2111;SDS011;1062;52.538;13.400;2024-01-11T05:26:11;17.50;;;9.30;;
2111;SDS011;1062;52.538;13.400;2024-01-11T05:28:37;19.50;;;8.67;;
2111;SDS011;1062;52.538;13.400;2024-01-11T05:31:13;26.43;;;9.60;;
2111;SDS011;1062;52.538;13.400;2024-01-11T05:33:42;16.23;;;7.83;;
2111;SDS011;1062;52.538;13.400;2024-01-11T05:36:08;26.97;;;9.70;;
2111;SDS011;1062;52.538;13.400;2024-01-11T05:38:34;22.50;;;8.87;;
2111;SDS011;1062;52.538;13.400;2024-01-11T05:41:00;18.17;;;8.87;;
2111;SDS011;1062;52.538;13.400;2024-01-11T05:43:26;15.43;;;9.60;;
2111;SDS011;1062;52.538;13.400;2024-01-11T05:45:52;30.73;;;11.00;;
2111;SDS011;1062;52.538;13.400;2024-01-11T05:48:18;21.17;;;9.23;;
2111;SDS011;1062;52.538;13.400;2024-01-11T05:50:43;20.23;;;8.43;;
2111;SDS011;1062;52.538;13.400;2024-01-11T05:53:09;24.37;;;9.83;;
2111;SDS011;1062;52.538;13.400;2024-01-11T05:55:36;28.70;;;9.73;;
2111;SDS011;1062;52.538;13.400;2024-01-11T05:58:01;22.37;;;10.20;;
2111;SDS011;1062;52.538;13.400;2024-01-11T06:00:27;20.93;;;9.43;;
2111;SDS011;1062;52.538;13.400;2024-01-11T06:02:53;24.47;;;9.40;;
2111;SDS011;1062;52.538;13.400;2024-01-11T06:05:18;23.10;;;9.87;;
2111;SDS011;1062;52.538;13.400;2024-01-11T06:07:44;24.20;;;9.57;;
2111;SDS011;1062;52.538;13.400;2024-01-11T06:10:09;24.60;;;11.30;;
2111;SDS011;1062;52.538;13.400;2024-01-11T06:12:35;25.67;;;11.50;;
2111;SDS011;1062;52.538;13.400;2024-01-11T06:15:01;24.13;;;9.77;;
2111;SDS011;1062;52.538;13.400;2024-01-11T06:17:27;22.50;;;10.47;;
2111;SDS011;1062;52.538;13.400;2024-01-11T06:19:53;18.60;;;9.03;;
2111;SDS011;1062;52.538;13.400;2024-01-11T06:22:19;29.90;;;11.57;;
2111;SDS011;1062;52.538;13.400;2024-01-11T06:24:45;28.63;;;11.20;;
2111;SDS011;1062;52.538;13.400;2024-01-11T06:27:10;28.57;;;12.63;;
2111;SDS011;1062;52.538;13.400;2024-01-11T06:29:36;24.90;;;11.23;;
2111;SDS011;1062;52.538;13.400;2024-01-11T06:32:02;26.47;;;11.67;;
2111;SDS011;1062;52.538;13.400;2024-01-11T06:34:27;20.13;;;11.27;;
2111;SDS011;1062;52.538;13.400;2024-01-11T06:36:54;28.70;;;11.57;;
2111;SDS011;1062;52.538;13.400;2024-01-11T06:39:20;24.37;;;11.10;;
2111;SDS011;1062;52.538;13.400;2024-01-11T06:41:46;24.50;;;10.03;;
2111;SDS011;1062;52.538;13.400;2024-01-11T06:44:11;37.37;;;13.00;;
2111;SDS011;1062;52.538;13.400;2024-01-11T06:46:37;32.47;;;12.70;;
2111;SDS011;1062;52.538;13.400;2024-01-11T06:49:06;25.43;;;12.23;;
2111;SDS011;1062;52.538;13.400;2024-01-11T06:51:33;28.00;;;11.40;;
2111;SDS011;1062;52.538;13.400;2024-01-11T06:53:59;33.23;;;11.93;;
2111;SDS011;1062;52.538;13.400;2024-01-11T06:56:26;21.77;;;11.63;;
2111;SDS011;1062;52.538;13.400;2024-01-11T06:58:52;27.93;;;12.40;;
2111;SDS011;1062;52.538;13.400;2024-01-11T07:01:19;30.63;;;11.80;;
2111;SDS011;1062;52.538;13.400;2024-01-11T07:03:44;35.93;;;10.77;;
2111;SDS011;1062;52.538;13.400;2024-01-11T07:06:10;25.93;;;11.50;;
2111;SDS011;1062;52.538;13.400;2024-01-11T07:08:36;30.40;;;12.00;;
2111;SDS011;1062;52.538;13.400;2024-01-11T07:11:01;24.13;;;12.07;;
2111;SDS011;1062;52.538;13.400;2024-01-11T07:13:28;32.47;;;12.63;;
2111;SDS011;1062;52.538;13.400;2024-01-11T07:15:54;30.13;;;12.93;;
2111;SDS011;1062;52.538;13.400;2024-01-11T07:18:20;28.17;;;14.47;;
2111;SDS011;1062;52.538;13.400;2024-01-11T07:20:46;30.77;;;12.10;;
2111;SDS011;1062;52.538;13.400;2024-01-11T07:23:13;41.03;;;13.80;;
2111;SDS011;1062;52.538;13.400;2024-01-11T07:25:38;29.87;;;12.23;;
2111;SDS011;1062;52.538;13.400;2024-01-11T07:28:04;30.87;;;14.67;;
2111;SDS011;1062;52.538;13.400;2024-01-11T07:30:30;27.23;;;13.20;;
2111;SDS011;1062;52.538;13.400;2024-01-11T07:32:56;37.97;;;13.53;;
2111;SDS011;1062;52.538;13.400;2024-01-11T07:35:21;27.63;;;12.90;;
2111;SDS011;1062;52.538;13.400;2024-01-11T07:37:47;33.87;;;15.30;;
2111;SDS011;1062;52.538;13.400;2024-01-11T07:40:12;35.17;;;13.10;;
2111;SDS011;1062;52.538;13.400;2024-01-11T07:42:38;32.67;;;11.83;;
2111;SDS011;1062;52.538;13.400;2024-01-11T07:45:05;29.13;;;13.17;;
2111;SDS011;1062;52.538;13.400;2024-01-11T07:47:37;33.27;;;14.60;;
2111;SDS011;1062;52.538;13.400;2024-01-11T07:50:03;28.67;;;13.47;;
2111;SDS011;1062;52.538;13.400;2024-01-11T07:52:31;30.03;;;13.40;;
2111;SDS011;1062;52.538;13.400;2024-01-11T07:54:57;27.50;;;11.93;;
2111;SDS011;1062;52.538;13.400;2024-01-11T07:57:31;27.83;;;12.20;;
2111;SDS011;1062;52.538;13.400;2024-01-11T08:00:00;37.23;;;13.90;;
2111;SDS011;1062;52.538;13.400;2024-01-11T08:02:25;26.80;;;12.33;;
2111;SDS011;1062;52.538;13.400;2024-01-11T08:04:52;28.03;;;13.57;;
2111;SDS011;1062;52.538;13.400;2024-01-11T08:07:17;33.67;;;14.30;;
2111;SDS011;1062;52.538;13.400;2024-01-11T08:09:43;29.27;;;13.40;;
2111;SDS011;1062;52.538;13.400;2024-01-11T08:12:16;30.63;;;12.60;;
2111;SDS011;1062;52.538;13.400;2024-01-11T08:14:42;30.57;;;14.00;;
2111;SDS011;1062;52.538;13.400;2024-01-11T08:17:08;31.77;;;14.00;;
2111;SDS011;1062;52.538;13.400;2024-01-11T08:19:34;30.77;;;13.00;;
2111;SDS011;1062;52.538;13.400;2024-01-11T08:22:00;26.23;;;15.77;;
2111;SDS011;1062;52.538;13.400;2024-01-11T08:24:25;30.90;;;13.30;;
2111;SDS011;1062;52.538;13.400;2024-01-11T08:26:51;36.60;;;15.93;;
2111;SDS011;1062;52.538;13.400;2024-01-11T08:29:17;30.60;;;13.17;;
2111;SDS011;1062;52.538;13.400;2024-01-11T08:31:45;32.20;;;15.40;;
2111;SDS011;1062;52.538;13.400;2024-01-11T08:34:11;28.63;;;13.30;;
2111;SDS011;1062;52.538;13.400;2024-01-11T08:36:37;28.93;;;13.07;;
2111;SDS011;1062;52.538;13.400;2024-01-11T08:39:03;28.33;;;13.43;;
2111;SDS011;1062;52.538;13.400;2024-01-11T08:41:33;31.50;;;14.30;;
2111;SDS011;1062;52.538;13.400;2024-01-11T08:44:00;40.60;;;15.83;;
2111;SDS011;1062;52.538;13.400;2024-01-11T08:46:27;33.60;;;13.63;;
2111;SDS011;1062;52.538;13.400;2024-01-11T08:48:53;32.07;;;13.60;;
2111;SDS011;1062;52.538;13.400;2024-01-11T08:51:21;35.60;;;13.90;;
2111;SDS011;1062;52.538;13.400;2024-01-11T08:53:46;38.00;;;14.27;;
2111;SDS011;1062;52.538;13.400;2024-01-11T08:56:12;34.40;;;15.77;;
2111;SDS011;1062;52.538;13.400;2024-01-11T08:58:41;35.13;;;13.40;;
2111;SDS011;1062;52.538;13.400;2024-01-11T09:01:07;30.73;;;14.40;;
2111;SDS011;1062;52.538;13.400;2024-01-11T09:03:33;27.20;;;13.10;;
2111;SDS011;1062;52.538;13.400;2024-01-11T09:06:00;33.63;;;15.70;;
2111;SDS011;1062;52.538;13.400;2024-01-11T09:08:26;25.97;;;13.50;;
2111;SDS011;1062;52.538;13.400;2024-01-11T09:10:51;37.90;;;13.47;;
2111;SDS011;1062;52.538;13.400;2024-01-11T09:13:18;32.47;;;13.20;;
2111;SDS011;1062;52.538;13.400;2024-01-11T09:15:43;30.70;;;15.13;;
2111;SDS011;1062;52.538;13.400;2024-01-11T09:18:09;32.77;;;15.20;;
2111;SDS011;1062;52.538;13.400;2024-01-11T09:20:35;27.03;;;13.50;;
2111;SDS011;1062;52.538;13.400;2024-01-11T09:23:01;27.30;;;14.77;;
2111;SDS011;1062;52.538;13.400;2024-01-11T09:25:30;31.63;;;12.10;;
2111;SDS011;1062;52.538;13.400;2024-01-11T09:27:55;36.47;;;16.10;;
2111;SDS011;1062;52.538;13.400;2024-01-11T09:30:21;27.13;;;11.73;;
2111;SDS011;1062;52.538;13.400;2024-01-11T09:32:46;25.27;;;13.50;;
2111;SDS011;1062;52.538;13.400;2024-01-11T09:35:15;34.67;;;14.70;;
2111;SDS011;1062;52.538;13.400;2024-01-11T09:37:40;37.27;;;14.53;;
2111;SDS011;1062;52.538;13.400;2024-01-11T09:40:07;33.30;;;16.10;;
2111;SDS011;1062;52.538;13.400;2024-01-11T09:42:39;33.20;;;14.17;;
2111;SDS011;1062;52.538;13.400;2024-01-11T09:45:09;24.10;;;13.43;;
2111;SDS011;1062;52.538;13.400;2024-01-11T09:47:37;31.73;;;13.80;;
2111;SDS011;1062;52.538;13.400;2024-01-11T09:50:05;33.50;;;15.73;;
2111;SDS011;1062;52.538;13.400;2024-01-11T09:52:32;39.77;;;16.97;;
2111;SDS011;1062;52.538;13.400;2024-01-11T09:55:00;32.63;;;14.60;;
2111;SDS011;1062;52.538;13.400;2024-01-11T09:57:30;31.57;;;13.90;;
2111;SDS011;1062;52.538;13.400;2024-01-11T09:59:57;31.20;;;16.33;;
2111;SDS011;1062;52.538;13.400;2024-01-11T10:02:23;28.77;;;15.77;;
2111;SDS011;1062;52.538;13.400;2024-01-11T10:04:53;37.30;;;15.23;;
2111;SDS011;1062;52.538;13.400;2024-01-11T10:07:21;31.27;;;15.80;;
2111;SDS011;1062;52.538;13.400;2024-01-11T10:09:48;29.33;;;14.93;;
2111;SDS011;1062;52.538;13.400;2024-01-11T10:12:14;34.57;;;16.80;;
2111;SDS011;1062;52.538;13.400;2024-01-11T10:14:40;25.17;;;14.73;;
2111;SDS011;1062;52.538;13.400;2024-01-11T10:17:06;31.60;;;13.90;;
2111;SDS011;1062;52.538;13.400;2024-01-11T10:19:32;38.30;;;16.33;;
2111;SDS011;1062;52.538;13.400;2024-01-11T10:21:58;30.43;;;14.60;;
2111;SDS011;1062;52.538;13.400;2024-01-11T10:24:23;24.03;;;12.77;;
2111;SDS011;1062;52.538;13.400;2024-01-11T10:26:57;30.97;;;15.00;;
2111;SDS011;1062;52.538;13.400;2024-01-11T10:29:32;28.77;;;14.87;;
2111;SDS011;1062;52.538;13.400;2024-01-11T10:31:58;33.47;;;13.87;;
2111;SDS011;1062;52.538;13.400;2024-01-11T10:34:24;36.80;;;15.47;;
2111;SDS011;1062;52.538;13.400;2024-01-11T10:36:50;29.67;;;15.03;;
2111;SDS011;1062;52.538;13.400;2024-01-11T10:39:16;32.37;;;15.80;;
2111;SDS011;1062;52.538;13.400;2024-01-11T10:41:46;27.80;;;15.10;;
2111;SDS011;1062;52.538;13.400;2024-01-11T10:44:21;27.17;;;13.53;;
2111;SDS011;1062;52.538;13.400;2024-01-11T10:46:47;26.97;;;13.73;;
2111;SDS011;1062;52.538;13.400;2024-01-11T10:49:18;27.20;;;13.70;;
2111;SDS011;1062;52.538;13.400;2024-01-11T10:51:56;28.67;;;17.33;;
2111;SDS011;1062;52.538;13.400;2024-01-11T10:54:23;30.53;;;15.40;;
2111;SDS011;1062;52.538;13.400;2024-01-11T10:56:49;28.80;;;13.77;;
2111;SDS011;1062;52.538;13.400;2024-01-11T10:59:16;26.37;;;12.30;;
2111;SDS011;1062;52.538;13.400;2024-01-11T11:01:45;25.30;;;13.67;;
2111;SDS011;1062;52.538;13.400;2024-01-11T11:04:12;28.30;;;13.17;;
2111;SDS011;1062;52.538;13.400;2024-01-11T11:06:40;28.60;;;14.87;;
2111;SDS011;1062;52.538;13.400;2024-01-11T11:09:07;26.13;;;13.63;;
2111;SDS011;1062;52.538;13.400;2024-01-11T11:11:35;23.27;;;12.93;;
2111;SDS011;1062;52.538;13.400;2024-01-11T11:14:02;27.63;;;15.37;;
2111;SDS011;1062;52.538;13.400;2024-01-11T11:16:30;25.10;;;14.60;;
2111;SDS011;1062;52.538;13.400;2024-01-11T11:18:55;25.60;;;13.93;;
2111;SDS011;1062;52.538;13.400;2024-01-11T11:21:21;25.77;;;13.10;;
2111;SDS011;1062;52.538;13.400;2024-01-11T11:23:49;23.33;;;12.03;;
2111;SDS011;1062;52.538;13.400;2024-01-11T11:26:16;21.60;;;12.37;;
2111;SDS011;1062;52.538;13.400;2024-01-11T11:28:46;26.53;;;14.23;;
2111;SDS011;1062;52.538;13.400;2024-01-11T11:31:13;28.43;;;14.43;;
2111;SDS011;1062;52.538;13.400;2024-01-11T11:34:11;26.37;;;12.20;;
2111;SDS011;1062;52.538;13.400;2024-01-11T11:36:39;25.23;;;14.10;;
2111;SDS011;1062;52.538;13.400;2024-01-11T11:39:09;25.43;;;12.47;;
2111;SDS011;1062;52.538;13.400;2024-01-11T11:41:38;24.10;;;13.90;;
2111;SDS011;1062;52.538;13.400;2024-01-11T11:44:05;24.83;;;12.60;;
2111;SDS011;1062;52.538;13.400;2024-01-11T11:46:31;21.07;;;13.47;;
2111;SDS011;1062;52.538;13.400;2024-01-11T11:48:58;22.13;;;13.63;;
2111;SDS011;1062;52.538;13.400;2024-01-11T11:51:24;26.93;;;13.73;;
2111;SDS011;1062;52.538;13.400;2024-01-11T11:53:51;27.00;;;11.77;;
2111;SDS011;1062;52.538;13.400;2024-01-11T11:56:18;25.30;;;12.37;;
2111;SDS011;1062;52.538;13.400;2024-01-11T11:58:47;25.33;;;12.43;;
2111;SDS011;1062;52.538;13.400;2024-01-11T12:01:15;26.37;;;12.53;;
2111;SDS011;1062;52.538;13.400;2024-01-11T12:03:42;24.43;;;13.67;;
2111;SDS011;1062;52.538;13.400;2024-01-11T12:06:19;25.40;;;12.67;;
2111;SDS011;1062;52.538;13.400;2024-01-11T12:08:48;25.20;;;13.03;;
2111;SDS011;1062;52.538;13.400;2024-01-11T12:11:14;27.37;;;14.73;;
2111;SDS011;1062;52.538;13.400;2024-01-11T12:13:44;26.97;;;14.17;;
2111;SDS011;1062;52.538;13.400;2024-01-11T12:16:11;26.33;;;11.30;;
2111;SDS011;1062;52.538;13.400;2024-01-11T12:18:37;25.57;;;13.00;;
2111;SDS011;1062;52.538;13.400;2024-01-11T12:21:02;26.20;;;14.90;;
2111;SDS011;1062;52.538;13.400;2024-01-11T12:23:28;24.07;;;14.00;;
2111;SDS011;1062;52.538;13.400;2024-01-11T12:25:58;22.43;;;11.30;;
2111;SDS011;1062;52.538;13.400;2024-01-11T12:28:25;25.00;;;13.13;;
2111;SDS011;1062;52.538;13.400;2024-01-11T12:30:51;26.03;;;14.30;;
2111;SDS011;1062;52.538;13.400;2024-01-11T12:33:17;23.57;;;11.47;;
2111;SDS011;1062;52.538;13.400;2024-01-11T12:35:43;26.93;;;14.03;;
2111;SDS011;1062;52.538;13.400;2024-01-11T12:38:09;24.10;;;13.03;;
2111;SDS011;1062;52.538;13.400;2024-01-11T12:40:35;33.43;;;17.00;;
2111;SDS011;1062;52.538;13.400;2024-01-11T12:43:07;23.60;;;13.53;;
2111;SDS011;1062;52.538;13.400;2024-01-11T12:45:36;27.10;;;12.80;;
2111;SDS011;1062;52.538;13.400;2024-01-11T12:48:02;21.97;;;11.57;;
2111;SDS011;1062;52.538;13.400;2024-01-11T12:50:28;23.50;;;11.87;;
2111;SDS011;1062;52.538;13.400;2024-01-11T12:53:04;22.33;;;12.27;;
2111;SDS011;1062;52.538;13.400;2024-01-11T12:55:31;19.93;;;12.13;;
2111;SDS011;1062;52.538;13.400;2024-01-11T12:58:05;21.00;;;11.20;;
2111;SDS011;1062;52.538;13.400;2024-01-11T13:00:31;22.00;;;10.63;;
2111;SDS011;1062;52.538;13.400;2024-01-11T13:02:57;21.73;;;11.13;;
2111;SDS011;1062;52.538;13.400;2024-01-11T13:05:22;22.73;;;11.50;;
2111;SDS011;1062;52.538;13.400;2024-01-11T13:07:48;25.03;;;14.33;;
2111;SDS011;1062;52.538;13.400;2024-01-11T13:10:14;23.27;;;12.77;;
2111;SDS011;1062;52.538;13.400;2024-01-11T13:12:39;21.90;;;12.40;;
2111;SDS011;1062;52.538;13.400;2024-01-11T13:15:05;25.57;;;12.93;;
2111;SDS011;1062;52.538;13.400;2024-01-11T13:17:31;24.83;;;12.27;;
2111;SDS011;1062;52.538;13.400;2024-01-11T13:19:57;22.83;;;11.90;;
2111;SDS011;1062;52.538;13.400;2024-01-11T13:22:24;22.07;;;12.30;;
2111;SDS011;1062;52.538;13.400;2024-01-11T13:24:50;23.47;;;13.83;;
2111;SDS011;1062;52.538;13.400;2024-01-11T13:27:15;22.73;;;13.73;;
2111;SDS011;1062;52.538;13.400;2024-01-11T13:29:41;23.40;;;11.80;;
2111;SDS011;1062;52.538;13.400;2024-01-11T13:32:07;28.40;;;13.90;;
2111;SDS011;1062;52.538;13.400;2024-01-11T13:34:32;27.83;;;12.90;;
2111;SDS011;1062;52.538;13.400;2024-01-11T13:36:58;24.43;;;12.73;;
2111;SDS011;1062;52.538;13.400;2024-01-11T13:39:24;24.57;;;13.00;;
2111;SDS011;1062;52.538;13.400;2024-01-11T13:41:50;25.83;;;14.60;;
2111;SDS011;1062;52.538;13.400;2024-01-11T13:44:16;24.37;;;13.23;;
2111;SDS011;1062;52.538;13.400;2024-01-11T13:46:41;22.13;;;11.80;;
2111;SDS011;1062;52.538;13.400;2024-01-11T13:49:08;22.50;;;11.87;;
2111;SDS011;1062;52.538;13.400;2024-01-11T13:51:34;19.63;;;11.30;;
2111;SDS011;1062;52.538;13.400;2024-01-11T13:53:59;27.23;;;11.73;;
2111;SDS011;1062;52.538;13.400;2024-01-11T13:56:25;18.10;;;10.57;;
2111;SDS011;1062;52.538;13.400;2024-01-11T13:58:52;20.23;;;11.73;;
2111;SDS011;1062;52.538;13.400;2024-01-11T14:01:18;17.93;;;10.23;;
2111;SDS011;1062;52.538;13.400;2024-01-11T14:03:43;18.10;;;10.43;;
2111;SDS011;1062;52.538;13.400;2024-01-11T14:06:09;15.07;;;9.27;;
2111;SDS011;1062;52.538;13.400;2024-01-11T14:08:35;18.60;;;9.97;;
2111;SDS011;1062;52.538;13.400;2024-01-11T14:11:00;14.00;;;8.43;;
2111;SDS011;1062;52.538;13.400;2024-01-11T14:13:26;14.83;;;9.03;;
2111;SDS011;1062;52.538;13.400;2024-01-11T14:15:51;22.27;;;8.33;;
2111;SDS011;1062;52.538;13.400;2024-01-11T14:18:18;15.50;;;8.37;;
2111;SDS011;1062;52.538;13.400;2024-01-11T14:20:45;12.13;;;8.43;;
2111;SDS011;1062;52.538;13.400;2024-01-11T14:23:11;16.67;;;9.03;;
2111;SDS011;1062;52.538;13.400;2024-01-11T14:25:37;22.43;;;10.97;;
2111;SDS011;1062;52.538;13.400;2024-01-11T14:28:02;17.33;;;9.63;;
2111;SDS011;1062;52.538;13.400;2024-01-11T14:30:29;16.77;;;8.87;;
2111;SDS011;1062;52.538;13.400;2024-01-11T14:32:54;17.67;;;9.43;;
2111;SDS011;1062;52.538;13.400;2024-01-11T14:35:20;16.00;;;10.27;;
2111;SDS011;1062;52.538;13.400;2024-01-11T14:37:46;16.77;;;10.70;;